| time (UTC) | temp F | wind direction | speed MPH | gust MPH | rain 1hr in | rain 24hr in | rain mn in | humidity % | barometer mb |
| 20260507045004 | 54 | 51 | 0.0 | 1.0 | 0.00 | 0.00 | 0.00 | 86 | 1022.0 |
| 20260507044508 | 54 | 68 | 0.0 | 1.0 | 0.00 | 0.00 | 0.00 | 86 | 1022.1 |
| 20260507044010 | 54 | 93 | 0.0 | 1.0 | 0.00 | 0.00 | 0.00 | 86 | 1022.1 |
| 20260507043511 | 54 | 51 | 0.0 | 1.0 | 0.00 | 0.00 | 0.00 | 85 | 1022.1 |
| 20260507043029 | 54 | 93 | 0.0 | 1.0 | 0.00 | 0.00 | 0.00 | 85 | 1022.2 |
| 20260507042512 | 54 | 9 | 0.0 | 1.0 | 0.00 | 0.00 | 0.00 | 85 | 1022.2 |
| 20260507042014 | 54 | 51 | 0.0 | 1.0 | 0.00 | 0.00 | 0.00 | 85 | 1022.2 |
| 20260507041530 | 54 | 51 | 0.0 | 2.0 | 0.00 | 0.00 | 0.00 | 85 | 1022.2 |
| 20260507041010 | 54 | 68 | 0.0 | 2.0 | 0.00 | 0.00 | 0.00 | 84 | 1022.2 |
| 20260507040510 | 54 | 51 | 0.0 | 1.0 | 0.00 | 0.00 | 0.00 | 84 | 1022.2 |
| 20260507040028 | 54 | 68 | 0.0 | 1.0 | 0.00 | 0.00 | 0.00 | 84 | 1022.1 |
| 20260507035512 | 54 | 51 | 0.0 | 0.0 | 0.00 | 0.00 | 0.00 | 84 | 1022.1 |
| 20260507035010 | 54 | 51 | 0.0 | 0.0 | 0.00 | 0.00 | 0.00 | 83 | 1022.0 |
| 20260507034535 | 54 | 51 | 0.0 | 0.0 | 0.00 | 0.00 | 0.00 | 83 | 1021.9 |
| 20260507034012 | 54 | 51 | 0.0 | 0.0 | 0.00 | 0.00 | 0.00 | 83 | 1021.8 |
| 20260507033511 | 55 | 51 | 0.0 | 0.0 | 0.00 | 0.00 | 0.00 | 83 | 1021.8 |
| 20260507033028 | 54 | 9 | 0.0 | 1.0 | 0.00 | 0.00 | 0.00 | 83 | 1021.9 |
| 20260507032512 | 55 | 9 | 0.0 | 1.0 | 0.00 | 0.00 | 0.00 | 83 | 1021.8 |
| 20260507032011 | 55 | 93 | 0.0 | 1.0 | 0.00 | 0.00 | 0.00 | 83 | 1021.7 |
| 20260507031529 | 55 | 120 | 0.0 | 1.0 | 0.00 | 0.00 | 0.00 | 83 | 1021.7 |
| 20260507031012 | 55 | 51 | 0.0 | 2.0 | 0.00 | 0.00 | 0.00 | 83 | 1021.7 |
| 20260507030517 | 55 | 76 | 0.0 | 2.0 | 0.00 | 0.00 | 0.00 | 82 | 1021.7 |
| 20260507030027 | 55 | 93 | 0.0 | 2.0 | 0.00 | 0.00 | 0.00 | 81 | 1021.6 |
| 20260507025511 | 55 | 59 | 0.0 | 3.0 | 0.00 | 0.00 | 0.00 | 81 | 1021.7 |
| 20260507025011 | 55 | 68 | 0.0 | 3.0 | 0.00 | 0.00 | 0.00 | 81 | 1021.8 |
| 20260507024528 | 55 | 221 | 0.0 | 4.0 | 0.00 | 0.00 | 0.00 | 80 | 1021.7 |
| 20260507024009 | 55 | 51 | 1.0 | 4.0 | 0.00 | 0.00 | 0.00 | 81 | 1021.6 |
| 20260507023513 | 56 | 76 | 0.0 | 2.0 | 0.00 | 0.00 | 0.00 | 80 | 1021.7 |
| 20260507023030 | 56 | 137 | 0.0 | 2.0 | 0.00 | 0.00 | 0.00 | 81 | 1021.6 |
| 20260507022510 | 56 | 137 | 0.0 | 2.0 | 0.00 | 0.00 | 0.00 | 80 | 1021.5 |
| 20260507022010 | 56 | 137 | 0.0 | 2.0 | 0.00 | 0.00 | 0.00 | 80 | 1021.6 |
| 20260507021530 | 56 | 309 | 0.0 | 2.0 | 0.00 | 0.00 | 0.00 | 80 | 1021.6 |
| 20260507021011 | 56 | 137 | 1.0 | 4.0 | 0.00 | 0.00 | 0.00 | 79 | 1021.6 |
| 20260507020513 | 57 | 137 | 1.0 | 4.0 | 0.00 | 0.00 | 0.00 | 79 | 1021.6 |
| 20260507020044 | 57 | 120 | 0.0 | 3.0 | 0.00 | 0.00 | 0.00 | 79 | 1021.7 |
| 20260507015510 | 57 | 61 | 0.0 | 3.0 | 0.00 | 0.00 | 0.00 | 78 | 1021.5 |
| 20260507015012 | 57 | 146 | 0.0 | 2.0 | 0.00 | 0.00 | 0.00 | 79 | 1021.5 |
| 20260507014526 | 57 | 137 | 1.0 | 3.0 | 0.00 | 0.00 | 0.00 | 78 | 1021.5 |
| 20260507014010 | 57 | 265 | 0.0 | 3.0 | 0.00 | 0.00 | 0.00 | 78 | 1021.5 |
| 20260507013509 | 57 | 141 | 1.0 | 3.0 | 0.00 | 0.00 | 0.00 | 78 | 1021.6 |
| 20260507013029 | 57 | 153 | 0.0 | 2.0 | 0.00 | 0.00 | 0.00 | 79 | 1021.4 |
| 20260507012509 | 57 | 178 | 0.0 | 3.0 | 0.00 | 0.00 | 0.00 | 79 | 1021.5 |
| 20260507012009 | 57 | 146 | 0.0 | 4.0 | 0.00 | 0.00 | 0.00 | 78 | 1021.5 |
| 20260507011541 | 57 | 146 | 1.0 | 4.0 | 0.00 | 0.00 | 0.00 | 78 | 1021.5 |
| 20260507011010 | 57 | 178 | 1.0 | 8.0 | 0.00 | 0.00 | 0.00 | 76 | 1021.5 |
| 20260507010510 | 57 | 51 | 2.0 | 8.0 | 0.00 | 0.00 | 0.00 | 77 | 1021.6 |
| 20260507010034 | 57 | 146 | 1.0 | 6.0 | 0.00 | 0.00 | 0.00 | 77 | 1021.6 |
| 20260507005511 | 57 | 178 | 2.0 | 6.0 | 0.00 | 0.00 | 0.00 | 74 | 1021.6 |
| 20260507005010 | 57 | 153 | 1.0 | 8.0 | 0.00 | 0.00 | 0.00 | 77 | 1021.6 |
| 20260507004531 | 57 | 194 | 2.0 | 8.0 | 0.00 | 0.00 | 0.00 | 75 | 1021.6 |
| 20260507004010 | 57 | 178 | 3.0 | 11.0 | 0.00 | 0.00 | 0.00 | 75 | 1021.6 |
| 20260507003511 | 57 | 147 | 7.0 | 11.0 | 0.00 | 0.00 | 0.00 | 74 | 1021.6 |
| 20260507003026 | 57 | 141 | 2.0 | 8.0 | 0.00 | 0.00 | 0.00 | 75 | 1021.6 |
| 20260507002509 | 57 | 156 | 2.0 | 8.0 | 0.00 | 0.00 | 0.00 | 75 | 1021.7 |
| 20260507002015 | 57 | 144 | 1.0 | 9.0 | 0.00 | 0.00 | 0.00 | 77 | 1021.7 |
| 20260507001600 | 57 | 309 | 2.0 | 9.0 | 0.00 | 0.00 | 0.00 | 77 | 1021.7 |
| 20260507001009 | 57 | 149 | 1.0 | 8.0 | 0.00 | 0.00 | 0.00 | 77 | 1021.7 |
| 20260507000511 | 57 | 178 | 4.0 | 8.0 | 0.00 | 0.00 | 0.00 | 76 | 1021.8 |
| 20260507000032 | 57 | 130 | 3.0 | 8.0 | 0.00 | 0.00 | 0.00 | 76 | 1021.7 |
| 20260506235511 | 57 | 120 | 2.0 | 8.0 | 0.00 | 0.00 | 0.00 | 76 | 1021.7 |
| 20260506235014 | 57 | 156 | 2.0 | 8.0 | 0.00 | 0.00 | 0.00 | 77 | 1021.7 |
| 20260506234527 | 57 | 214 | 2.0 | 11.0 | 0.00 | 0.00 | 0.00 | 77 | 1021.7 |
| 20260506234003 | 57 | 137 | 5.0 | 11.0 | 0.00 | 0.00 | 0.00 | 76 | 1021.6 |
| 20260506233504 | 58 | 160 | 3.0 | 10.0 | 0.00 | 0.00 | 0.00 | 77 | 1021.6 |
| 20260506233009 | 58 | 142 | 2.0 | 8.0 | 0.00 | 0.00 | 0.00 | 77 | 1021.6 |
| 20260506232503 | 58 | 200 | 1.0 | 8.0 | 0.00 | 0.00 | 0.00 | 78 | 1021.5 |
| 20260506232003 | 58 | 167 | 3.0 | 7.0 | 0.00 | 0.00 | 0.00 | 76 | 1021.6 |
| 20260506231507 | 58 | 178 | 1.0 | 7.0 | 0.00 | 0.00 | 0.00 | 78 | 1021.6 |
| 20260506231003 | 58 | 171 | 2.0 | 9.0 | 0.00 | 0.00 | 0.00 | 78 | 1021.6 |
| 20260506230507 | 58 | 47 | 4.0 | 9.0 | 0.00 | 0.00 | 0.00 | 76 | 1021.7 |
| 20260506230009 | 58 | 160 | 2.0 | 11.0 | 0.00 | 0.00 | 0.00 | 76 | 1021.6 |
| 20260506225503 | 59 | 190 | 4.0 | 11.0 | 0.00 | 0.00 | 0.00 | 75 | 1021.6 |
| 20260506225003 | 59 | 150 | 4.0 | 11.0 | 0.00 | 0.00 | 0.00 | 75 | 1021.7 |
| 20260506224509 | 58 | 153 | 2.0 | 7.0 | 0.00 | 0.00 | 0.00 | 77 | 1021.6 |
| 20260506224003 | 58 | 212 | 2.0 | 7.0 | 0.00 | 0.00 | 0.00 | 76 | 1021.7 |
| 20260506223503 | 58 | 80 | 1.0 | 8.0 | 0.00 | 0.00 | 0.00 | 78 | 1021.7 |
| 20260506223010 | 58 | 137 | 3.0 | 8.0 | 0.00 | 0.00 | 0.00 | 76 | 1021.7 |
| 20260506222510 | 58 | 149 | 2.0 | 9.0 | 0.00 | 0.00 | 0.00 | 78 | 1021.8 |
| 20260506222004 | 59 | 165 | 2.0 | 9.0 | 0.00 | 0.00 | 0.00 | 78 | 1021.9 |
| 20260506221512 | 59 | 196 | 1.0 | 7.0 | 0.00 | 0.00 | 0.00 | 78 | 1021.9 |
| 20260506221003 | 59 | 108 | 2.0 | 8.0 | 0.00 | 0.00 | 0.00 | 77 | 1022.0 |
| 20260506220504 | 59 | 51 | 1.0 | 10.0 | 0.00 | 0.00 | 0.00 | 78 | 1022.0 |
| 20260506220012 | 59 | 120 | 3.0 | 10.0 | 0.00 | 0.00 | 0.00 | 77 | 1022.1 |
| 20260506215504 | 59 | 126 | 3.0 | 10.0 | 0.00 | 0.00 | 0.00 | 75 | 1022.0 |
| 20260506215006 | 60 | 68 | 1.0 | 8.0 | 0.00 | 0.00 | 0.00 | 78 | 1021.9 |
| 20260506214514 | 59 | 265 | 2.0 | 4.0 | 0.00 | 0.00 | 0.00 | 80 | 1021.8 |
| 20260506214004 | 58 | 162 | 1.0 | 6.0 | 0.00 | 0.00 | 0.00 | 79 | 1021.8 |
| 20260506213505 | 58 | 151 | 2.0 | 6.0 | 0.00 | 0.00 | 0.00 | 79 | 1021.9 |
| 20260506213012 | 58 | 162 | 1.0 | 4.0 | 0.00 | 0.00 | 0.00 | 81 | 1021.9 |
| 20260506212504 | 58 | 137 | 1.0 | 4.0 | 0.00 | 0.00 | 0.00 | 80 | 1021.9 |
| 20260506212009 | 58 | 120 | 0.0 | 4.0 | 0.00 | 0.00 | 0.00 | 82 | 1021.9 |
| 20260506211515 | 57 | 41 | 1.0 | 4.0 | 0.00 | 0.00 | 0.00 | 81 | 1022.0 |
| 20260506211006 | 57 | 129 | 2.0 | 4.0 | 0.00 | 0.00 | 0.00 | 81 | 1022.0 |
| 20260506210507 | 57 | 153 | 0.0 | 5.0 | 0.00 | 0.00 | 0.00 | 83 | 1021.9 |
| 20260506210036 | 57 | 196 | 1.0 | 8.0 | 0.00 | 0.00 | 0.00 | 83 | 1021.9 |
| 20260506205503 | 56 | 160 | 4.0 | 8.0 | 0.00 | 0.00 | 0.00 | 83 | 1021.9 |
| 20260506205009 | 56 | 153 | 2.0 | 8.0 | 0.00 | 0.00 | 0.00 | 83 | 1022.0 |
| 20260506204518 | 56 | 140 | 3.0 | 8.0 | 0.00 | 0.00 | 0.00 | 83 | 1021.9 |
| 20260506203509 | 57 | 128 | 4.0 | 8.0 | 0.00 | 0.00 | 0.00 | 83 | 1021.8 |
| 20260506200004 | 55 | 134 | 2.0 | 6.0 | 0.00 | 0.00 | 0.00 | 87 | 1021.9 |
| 20260506195504 | 55 | 137 | 2.0 | 6.0 | 0.00 | 0.00 | 0.00 | 87 | 1021.9 |
| 20260506195005 | 55 | 153 | 1.0 | 5.0 | 0.00 | 0.00 | 0.00 | 87 | 1021.8 |
| 20260506194506 | 55 | 139 | 2.0 | 8.0 | 0.00 | 0.00 | 0.00 | 87 | 1021.7 |
| 20260506194002 | 55 | 165 | 1.0 | 8.0 | 0.00 | 0.00 | 0.00 | 87 | 1021.7 |
| 20260506193504 | 55 | 138 | 2.0 | 7.0 | 0.00 | 0.00 | 0.00 | 87 | 1021.6 |
| 20260506193003 | 55 | 239 | 1.0 | 5.0 | 0.00 | 0.00 | 0.00 | 87 | 1021.6 |
| 20260506192502 | 55 | 93 | 2.0 | 7.0 | 0.00 | 0.00 | 0.00 | 86 | 1021.7 |
| 20260506192002 | 55 | 76 | 2.0 | 7.0 | 0.00 | 0.00 | 0.00 | 86 | 1021.6 |
| 20260506191510 | 56 | 123 | 1.0 | 4.0 | 0.00 | 0.00 | 0.00 | 87 | 1021.6 |
| 20260506191004 | 56 | 129 | 0.0 | 4.0 | 0.00 | 0.00 | 0.00 | 87 | 1021.6 |
| 20260506190507 | 55 | 51 | 0.0 | 7.0 | 0.00 | 0.00 | 0.00 | 87 | 1021.6 |
| 20260506190005 | 55 | 158 | 2.0 | 7.0 | 0.00 | 0.00 | 0.00 | 86 | 1021.5 |
| 20260506185505 | 55 | 156 | 2.0 | 8.0 | 0.00 | 0.00 | 0.00 | 87 | 1021.5 |
| 20260506185003 | 55 | 144 | 4.0 | 8.0 | 0.00 | 0.00 | 0.00 | 87 | 1021.4 |
| 20260506184505 | 55 | 178 | 2.0 | 6.0 | 0.00 | 0.00 | 0.00 | 87 | 1021.5 |
| 20260506184003 | 55 | 153 | 1.0 | 6.0 | 0.00 | 0.00 | 0.00 | 89 | 1021.5 |
| 20260506183503 | 55 | 148 | 3.0 | 5.0 | 0.00 | 0.00 | 0.00 | 88 | 1021.4 |
| 20260506183004 | 55 | 150 | 2.0 | 5.0 | 0.00 | 0.00 | 0.00 | 87 | 1021.3 |
| 20260506182506 | 55 | 140 | 1.0 | 7.0 | 0.00 | 0.00 | 0.00 | 88 | 1021.3 |
| 20260506182003 | 55 | 153 | 3.0 | 8.0 | 0.00 | 0.00 | 0.00 | 87 | 1021.2 |
| 20260506181505 | 55 | 144 | 5.0 | 8.0 | 0.00 | 0.00 | 0.00 | 87 | 1021.2 |
| 20260506181003 | 55 | 129 | 2.0 | 8.0 | 0.00 | 0.00 | 0.00 | 88 | 1021.2 |
| 20260506180503 | 55 | 205 | 3.0 | 8.0 | 0.00 | 0.00 | 0.00 | 88 | 1021.2 |
| 20260506180003 | 55 | 205 | 1.0 | 5.0 | 0.00 | 0.00 | 0.00 | 89 | 1021.1 |
| 20260506175502 | 55 | 129 | 1.0 | 5.0 | 0.00 | 0.00 | 0.00 | 89 | 1021.1 |
| 20260506175003 | 55 | 153 | 0.0 | 5.0 | 0.00 | 0.00 | 0.00 | 88 | 1021.3 |
| 20260506174503 | 55 | 205 | 1.0 | 3.0 | 0.00 | 0.00 | 0.00 | 89 | 1021.1 |
| 20260506174004 | 55 | 221 | 0.0 | 5.0 | 0.00 | 0.00 | 0.00 | 89 | 1020.9 |
| 20260506173506 | 55 | 51 | 1.0 | 7.0 | 0.00 | 0.00 | 0.00 | 89 | 1020.8 |
| 20260506173004 | 55 | 165 | 3.0 | 7.0 | 0.00 | 0.00 | 0.00 | 88 | 1020.7 |
| 20260506172512 | 55 | 153 | 2.0 | 6.0 | 0.00 | 0.00 | 0.00 | 89 | 1020.8 |
| 20260506172012 | 55 | 212 | 2.0 | 5.0 | 0.00 | 0.00 | 0.00 | 90 | 1020.9 |
| 20260506171532 | 55 | 243 | 1.0 | 4.0 | 0.00 | 0.00 | 0.00 | 90 | 1021.0 |
| 20260506171013 | 54 | 165 | 1.0 | 4.0 | 0.00 | 0.00 | 0.00 | 90 | 1021.0 |
| 20260506170509 | 54 | 162 | 0.0 | 4.0 | 0.00 | 0.00 | 0.00 | 90 | 1021.0 |
| 20260506170030 | 54 | 229 | 1.0 | 3.0 | 0.00 | 0.00 | 0.00 | 90 | 1020.9 |
| 20260506165507 | 54 | 178 | 1.0 | 3.0 | 0.00 | 0.00 | 0.00 | 91 | 1020.8 |
| 20260506165009 | 54 | 93 | 0.0 | 2.0 | 0.00 | 0.00 | 0.00 | 91 | 1020.8 |
| 20260506164542 | 54 | 162 | 0.0 | 4.0 | 0.00 | 0.00 | 0.00 | 91 | 1021.0 |
| 20260506164006 | 53 | 265 | 0.0 | 4.0 | 0.00 | 0.00 | 0.00 | 91 | 1021.2 |
| 20260506163510 | 53 | 126 | 0.0 | 4.0 | 0.00 | 0.00 | 0.00 | 91 | 1021.1 |
| 20260506163024 | 53 | 93 | 0.0 | 4.0 | 0.00 | 0.00 | 0.00 | 91 | 1021.1 |
| 20260506162510 | 53 | 158 | 1.0 | 4.0 | 0.00 | 0.00 | 0.00 | 91 | 1021.0 |
| 20260506162008 | 53 | 51 | 0.0 | 5.0 | 0.00 | 0.00 | 0.00 | 91 | 1021.0 |
| 20260506161526 | 53 | 93 | 0.0 | 5.0 | 0.00 | 0.00 | 0.00 | 91 | 1021.0 |
| 20260506161010 | 53 | 139 | 2.0 | 5.0 | 0.00 | 0.00 | 0.00 | 91 | 1020.9 |
| 20260506160510 | 53 | 153 | 2.0 | 6.0 | 0.00 | 0.00 | 0.00 | 91 | 1021.0 |
| 20260506160024 | 53 | 108 | 1.0 | 6.0 | 0.00 | 0.00 | 0.00 | 91 | 1021.0 |
| 20260506155508 | 53 | 178 | 2.0 | 6.0 | 0.00 | 0.00 | 0.00 | 92 | 1020.9 |
| 20260506155013 | 53 | 186 | 2.0 | 6.0 | 0.00 | 0.00 | 0.00 | 92 | 1020.8 |
| 20260506121009 | 51 | 93 | 0.0 | 1.0 | 0.00 | 0.00 | 0.00 | 95 | 1019.9 |
| 20260506120511 | 51 | 51 | 0.0 | 3.0 | 0.00 | 0.00 | 0.00 | 95 | 1019.9 |
| 20260506120048 | 51 | 93 | 0.0 | 3.0 | 0.00 | 0.00 | 0.00 | 95 | 1019.8 |
| 20260506115508 | 50 | 93 | 0.0 | 1.0 | 0.00 | 0.00 | 0.00 | 95 | 1019.8 |
| 20260506115009 | 50 | 137 | 0.0 | 0.0 | 0.00 | 0.00 | 0.00 | 95 | 1019.7 |
| 20260506114531 | 50 | 51 | 0.0 | 0.0 | 0.00 | 0.00 | 0.00 | 95 | 1019.8 |
| 20260506114012 | 50 | 93 | 0.0 | 0.0 | 0.00 | 0.00 | 0.00 | 95 | 1019.7 |
| 20260506113510 | 50 | 51 | 0.0 | 0.0 | 0.00 | 0.00 | 0.00 | 95 | 1019.6 |
| 20260506113025 | 50 | 93 | 0.0 | 0.0 | 0.00 | 0.00 | 0.00 | 95 | 1019.6 |
| 20260506112510 | 50 | 93 | 0.0 | 0.0 | 0.00 | 0.00 | 0.00 | 95 | 1019.5 |
| 20260506112013 | 50 | 9 | 0.0 | 0.0 | 0.00 | 0.00 | 0.00 | 95 | 1019.4 |
| 20260506111527 | 50 | 93 | 0.0 | 0.0 | 0.00 | 0.00 | 0.00 | 95 | 1019.2 |
| 20260506111010 | 50 | 93 | 0.0 | 1.0 | 0.00 | 0.00 | 0.00 | 95 | 1019.2 |
| 20260506110510 | 50 | 178 | 0.0 | 1.0 | 0.00 | 0.00 | 0.00 | 95 | 1019.1 |
| 20260506110006 | 50 | 137 | 0.0 | 1.0 | 0.00 | 0.00 | 0.00 | 94 | 1019.2 |
| 20260506105505 | 49 | 137 | 0.0 | 1.0 | 0.00 | 0.00 | 0.00 | 94 | 1019.1 |
| 20260506105002 | 49 | 93 | 0.0 | 0.0 | 0.00 | 0.00 | 0.00 | 94 | 1019.1 |
| 20260506104503 | 49 | 93 | 0.0 | 0.0 | 0.00 | 0.00 | 0.00 | 94 | 1018.8 |
| 20260506104006 | 49 | 178 | 0.0 | 0.0 | 0.00 | 0.00 | 0.00 | 94 | 1018.7 |
| 20260506103502 | 49 | 93 | 0.0 | 0.0 | 0.00 | 0.00 | 0.00 | 94 | 1018.7 |
| 20260506103013 | 49 | 137 | 0.0 | 1.0 | 0.00 | 0.00 | 0.00 | 94 | 1018.8 |
| 20260506102502 | 49 | 137 | 0.0 | 1.0 | 0.00 | 0.00 | 0.00 | 94 | 1018.8 |
| 20260506102003 | 49 | 137 | 0.0 | 0.0 | 0.00 | 0.00 | 0.00 | 94 | 1018.8 |
| 20260506101505 | 49 | 178 | 0.0 | 0.0 | 0.00 | 0.00 | 0.00 | 94 | 1018.8 |
| 20260506101002 | 49 | 93 | 0.0 | 0.0 | 0.00 | 0.00 | 0.00 | 94 | 1018.8 |
| 20260506100502 | 49 | 93 | 0.0 | 0.0 | 0.00 | 0.00 | 0.00 | 94 | 1018.8 |
| 20260506100005 | 49 | 93 | 0.0 | 0.0 | 0.00 | 0.00 | 0.00 | 93 | 1018.7 |
| 20260506095503 | 49 | 51 | 0.0 | 0.0 | 0.00 | 0.00 | 0.00 | 93 | 1018.7 |
| 20260506095004 | 48 | 51 | 0.0 | 0.0 | 0.00 | 0.00 | 0.00 | 93 | 1018.7 |
| 20260506094503 | 49 | 221 | 0.0 | 0.0 | 0.00 | 0.00 | 0.00 | 93 | 1018.6 |
| 20260506094003 | 49 | 51 | 0.0 | 0.0 | 0.00 | 0.00 | 0.00 | 93 | 1018.6 |
| 20260506093503 | 49 | 9 | 0.0 | 0.0 | 0.00 | 0.00 | 0.00 | 93 | 1018.6 |
| 20260506093016 | 49 | 51 | 0.0 | 0.0 | 0.00 | 0.00 | 0.00 | 93 | 1018.7 |
| 20260506092509 | 49 | 93 | 0.0 | 0.0 | 0.00 | 0.00 | 0.00 | 93 | 1018.7 |
| 20260506092014 | 49 | 51 | 0.0 | 0.0 | 0.00 | 0.00 | 0.00 | 93 | 1018.7 |
| 20260506091525 | 49 | 93 | 0.0 | 0.0 | 0.00 | 0.00 | 0.00 | 93 | 1018.6 |
| 20260506091011 | 49 | 51 | 0.0 | 0.0 | 0.00 | 0.00 | 0.00 | 93 | 1018.6 |
| 20260506090509 | 49 | 51 | 0.0 | 1.0 | 0.00 | 0.00 | 0.00 | 92 | 1018.6 |
| 20260506090023 | 49 | 325 | 0.0 | 1.0 | 0.00 | 0.00 | 0.00 | 92 | 1018.5 |
| 20260506085508 | 49 | 9 | 0.0 | 1.0 | 0.00 | 0.00 | 0.00 | 93 | 1018.4 |
| 20260506085009 | 49 | 9 | 0.0 | 1.0 | 0.00 | 0.00 | 0.00 | 92 | 1018.3 |
| 20260506084558 | 49 | 51 | 0.0 | 1.0 | 0.00 | 0.00 | 0.00 | 92 | 1018.3 |
| 20260506084017 | 49 | 9 | 0.0 | 1.0 | 0.00 | 0.00 | 0.00 | 92 | 1018.2 |
| 20260506083511 | 49 | 9 | 0.0 | 1.0 | 0.00 | 0.00 | 0.00 | 92 | 1018.1 |
| 20260506083026 | 49 | 51 | 0.0 | 1.0 | 0.00 | 0.00 | 0.00 | 92 | 1018.2 |
| 20260506082507 | 49 | 51 | 0.0 | 1.0 | 0.00 | 0.00 | 0.00 | 92 | 1018.2 |
| 20260506082011 | 49 | 68 | 0.0 | 1.0 | 0.00 | 0.00 | 0.00 | 92 | 1018.2 |
| 20260506081534 | 49 | 51 | 0.0 | 1.0 | 0.00 | 0.00 | 0.00 | 92 | 1018.1 |
| 20260506081011 | 49 | 51 | 0.0 | 1.0 | 0.00 | 0.00 | 0.00 | 91 | 1018.1 |
| 20260506080507 | 49 | 51 | 0.0 | 1.0 | 0.00 | 0.00 | 0.00 | 91 | 1018.1 |
| 20260506073510 | 50 | 51 | 0.0 | 2.0 | 0.00 | 0.00 | 0.00 | 91 | 1017.7 |
| 20260506073027 | 50 | 68 | 0.0 | 2.0 | 0.00 | 0.00 | 0.00 | 91 | 1017.7 |
| 20260506072509 | 50 | 51 | 0.0 | 1.0 | 0.00 | 0.00 | 0.00 | 91 | 1017.7 |
| 20260506072013 | 50 | 51 | 0.0 | 1.0 | 0.00 | 0.00 | 0.00 | 91 | 1017.7 |
| 20260506071529 | 50 | 51 | 0.0 | 1.0 | 0.00 | 0.00 | 0.00 | 91 | 1017.6 |
| 20260506071009 | 50 | 34 | 0.0 | 1.0 | 0.00 | 0.00 | 0.00 | 91 | 1017.6 |
| 20260506070508 | 50 | 9 | 0.0 | 1.0 | 0.00 | 0.00 | 0.00 | 91 | 1017.6 |
| 20260506062512 | 51 | 9 | 0.0 | 1.0 | 0.00 | 0.00 | 0.00 | 90 | 1017.6 |
| 20260506062009 | 51 | 51 | 0.0 | 1.0 | 0.00 | 0.00 | 0.00 | 90 | 1017.6 |
| 20260506061526 | 51 | 51 | 0.0 | 1.0 | 0.00 | 0.00 | 0.00 | 90 | 1017.5 |
| 20260506061010 | 52 | 68 | 0.0 | 1.0 | 0.00 | 0.00 | 0.00 | 90 | 1017.5 |
| 20260506060510 | 52 | 51 | 0.0 | 1.0 | 0.00 | 0.00 | 0.00 | 90 | 1017.5 |
| 20260506051013 | 53 | 265 | 0.0 | 1.0 | 0.00 | 0.00 | 0.00 | 88 | 1017.1 |
| 20260506050510 | 54 | 51 | 0.0 | 1.0 | 0.00 | 0.00 | 0.00 | 87 | 1016.9 |